Time;durP1;ratioP1;P1;durP2;ratioP2;P2;SDS_P1;SDS_P2;PMS_P1;PMS_P2;Temp;Humidity;BMP_temperature;BMP_pressure;BME280_temperature;BME280_humidity;BME280_pressure;Samples;Min_cycle;Max_cycle;Signal;HPM_P1;HPM_P2
2022/02/01 00:02:06;;;;;;;21.70;10.10;;;;;;;;;;5036014;28;20207;-81
2022/02/01 00:04:43;;;;;;;26.03;11.60;;;-2.30;99.90;;;;;;5035364;28;20162;-81
2022/02/01 00:07:21;;;;;;;29.43;10.87;;;-2.10;99.90;;;;;;5034514;28;20238;-81
2022/02/01 00:36:31;;;;;;;15.00;8.13;;;-2.10;99.90;;;;;;5055083;28;20280;-80
2022/02/01 00:39:02;;;;;;;21.17;8.07;;;0.60;99.90;;;;;;5007912;28;20574;-81
2022/02/01 00:41:31;;;;;;;22.97;9.00;;;-2.10;99.90;;;;;;5021105;28;20188;-80
2022/02/01 00:43:58;;;;;;;17.57;8.23;;;-0.10;99.90;;;;;;5021415;28;20718;-80
2022/02/01 00:46:23;;;;;;;22.17;7.90;;;-1.30;99.90;;;;;;5020302;28;20191;-81
2022/02/01 00:48:49;;;;;;;22.17;9.60;;;0.30;99.90;;;;;;5037068;28;20550;-80
2022/02/01 00:51:15;;;;;;;16.77;7.40;;;-1.80;99.90;;;;;;5036942;28;20624;-80
2022/02/01 00:53:42;;;;;;;19.47;7.87;;;-0.30;99.90;;;;;;5054521;28;20186;-80
2022/02/01 00:56:09;;;;;;;25.10;7.97;;;1.00;99.90;;;;;;5054628;28;20266;-81
2022/02/01 00:58:35;;;;;;;17.07;7.23;;;-2.00;99.90;;;;;;5054618;28;20218;-81
2022/02/01 01:01:01;;;;;;;14.27;7.20;;;-1.40;99.90;;;;;;5054844;28;20176;-81
2022/02/01 01:03:27;;;;;;;13.97;6.60;;;-1.70;99.90;;;;;;5054656;28;20231;-81
2022/02/01 01:05:55;;;;;;;17.70;6.90;;;-1.60;99.90;;;;;;5055065;28;20181;-81
2022/02/01 01:08:21;;;;;;;19.47;8.07;;;-1.20;99.90;;;;;;5054610;28;20262;-80
2022/02/01 01:10:47;;;;;;;17.93;7.60;;;-1.60;99.90;;;;;;5019832;28;20620;-80
2022/02/01 01:16:03;;;;;;;17.33;8.77;;;-1.70;99.90;;;;;;5037202;28;20186;-80
2022/02/01 01:38:45;;;;;;;22.50;8.73;;;-1.50;99.90;;;;;;5054090;28;20298;-81
2022/02/01 01:53:59;;;;;;;15.00;6.87;;;-0.40;99.90;;;;;;5053808;28;20222;-81
2022/02/01 01:56:26;;;;;;;13.03;5.10;;;1.00;99.90;;;;;;5053319;28;20260;-81
2022/02/01 01:58:52;;;;;;;15.27;6.30;;;-1.40;99.90;;;;;;5035346;28;20204;-81
2022/02/01 02:01:17;;;;;;;13.53;6.23;;;-1.20;99.90;;;;;;5019570;28;20187;-80
2022/02/01 02:03:49;;;;;;;15.60;6.33;;;-1.00;99.90;;;;;;5035255;28;20641;-81
2022/02/01 02:06:16;;;;;;;19.50;7.40;;;-0.50;99.90;;;;;;5053479;28;20264;-80
2022/02/01 02:08:45;;;;;;;13.93;7.20;;;-1.70;99.90;;;;;;5052795;28;20544;-81
2022/02/01 02:11:16;;;;;;;10.93;6.47;;;-0.60;99.90;;;;;;5019279;28;20666;-80
2022/02/01 02:16:42;;;;;;;19.27;8.83;;;-1.70;99.90;;;;;;5053094;28;20253;-81
2022/02/01 02:19:09;;;;;;;20.17;8.07;;;-1.80;99.90;;;;;;5035332;28;20210;-81
2022/02/01 02:21:35;;;;;;;20.40;9.67;;;-1.60;99.90;;;;;;5035156;28;20182;-82
2022/02/01 02:24:01;;;;;;;16.83;8.07;;;-1.30;99.90;;;;;;5052926;28;20179;-81
2022/02/01 02:26:27;;;;;;;19.97;9.30;;;-1.80;99.90;;;;;;5035224;28;20275;-81
2022/02/01 02:28:53;;;;;;;22.00;9.93;;;;;;;;;;5034549;28;20770;-80
2022/02/01 02:31:23;;;;;;;18.37;9.07;;;-1.60;99.90;;;;;;5053108;28;20231;-80
2022/02/01 02:33:56;;;;;;;24.20;9.63;;;-1.60;99.90;;;;;;5034839;28;20531;-80
2022/02/01 02:36:22;;;;;;;18.23;8.87;;;-1.30;99.90;;;;;;5053023;28;20223;-80
2022/02/01 02:39:00;;;;;;;18.97;8.17;;;0.20;99.90;;;;;;5018380;28;20571;-80
2022/02/01 02:46:39;;;;;;;19.80;8.70;;;-1.60;99.90;;;;;;5052693;28;20216;-81
2022/02/01 02:49:06;;;;;;;15.47;8.00;;;0.50;99.90;;;;;;5052995;28;20248;-80
2022/02/01 02:51:32;;;;;;;18.43;8.37;;;0.50;99.90;;;;;;5018936;28;20187;-80
2022/02/01 02:54:01;;;;;;;16.80;8.37;;;-1.70;99.90;;;;;;5035027;28;20176;-80
2022/02/01 02:56:26;;;;;;;18.80;8.20;;;-1.60;99.90;;;;;;5035083;28;20173;-81
2022/02/01 02:58:52;;;;;;;19.37;9.00;;;-1.40;99.90;;;;;;5034675;28;20228;-81
2022/02/01 03:01:19;;;;;;;18.13;8.83;;;-1.60;99.90;;;;;;5052490;28;20197;-80
2022/02/01 03:03:45;;;;;;;18.20;9.80;;;-1.40;99.90;;;;;;5034720;28;20186;-81
2022/02/01 03:06:11;;;;;;;19.90;8.47;;;-1.40;99.90;;;;;;5052501;28;20179;-80
2022/02/01 03:08:37;;;;;;;23.70;8.33;;;1.90;99.90;;;;;;5035102;28;20188;-81
2022/02/01 03:11:09;;;;;;;22.33;9.50;;;-0.70;99.90;;;;;;5052967;28;20183;-81
2022/02/01 03:13:35;;;;;;;26.57;9.73;;;0.20;99.90;;;;;;5035313;28;20529;-81
2022/02/01 03:21:13;;;;;;;18.80;7.93;;;-0.80;99.90;;;;;;5037969;28;20195;-81
2022/02/01 03:23:39;;;;;;;17.83;7.17;;;0.30;99.90;;;;;;5052789;28;20178;-85
2022/02/01 03:26:04;;;;;;;16.93;6.73;;;-1.70;99.90;;;;;;5035094;28;20595;-81
2022/02/01 03:28:30;;;;;;;13.50;6.67;;;-1.70;99.90;;;;;;5052616;28;20232;-81
2022/02/01 03:30:57;;;;;;;14.90;6.80;;;-1.70;99.90;;;;;;5057501;28;20222;-81
2022/02/01 03:33:22;;;;;;;14.20;6.50;;;0.20;99.90;;;;;;5072243;28;20176;-80
2022/02/01 03:35:48;;;;;;;17.10;7.67;;;-1.70;99.90;;;;;;5054186;28;20228;-80
2022/02/01 03:38:14;;;;;;;11.37;5.37;;;-1.60;99.90;;;;;;5054845;28;20210;-81
2022/02/01 03:40:39;;;;;;;14.97;6.33;;;0.50;99.90;;;;;;5054286;28;20180;-80
2022/02/01 03:43:05;;;;;;;17.57;6.00;;;-1.70;99.90;;;;;;5072278;28;20191;-81
2022/02/01 03:45:31;;;;;;;15.53;6.13;;;-0.40;99.90;;;;;;5038201;28;20204;-80
2022/02/01 03:47:56;;;;;;;17.23;5.90;;;-1.60;99.90;;;;;;5054765;28;20191;-81
2022/02/01 03:50:22;;;;;;;15.47;6.40;;;-1.70;99.90;;;;;;5073082;28;20178;-80
2022/02/01 03:52:48;;;;;;;15.03;5.97;;;0.20;99.90;;;;;;5072869;28;20213;-80
2022/02/01 03:55:14;;;;;;;15.73;6.57;;;-1.70;99.90;;;;;;5074174;28;20192;-80
2022/02/01 03:57:39;;;;;;;15.83;6.33;;;0.10;99.90;;;;;;5042694;28;20208;-80
2022/02/01 04:00:06;;;;;;;15.43;6.33;;;-1.70;99.90;;;;;;5059455;28;20198;-81
2022/02/01 04:02:32;;;;;;;13.67;4.93;;;-1.80;99.90;;;;;;5077922;28;20184;-81
2022/02/01 04:04:57;;;;;;;16.60;6.97;;;-1.40;99.90;;;;;;5043971;28;20179;-80
2022/02/01 04:07:23;;;;;;;18.13;7.30;;;-0.20;99.90;;;;;;5062161;28;20168;-84
2022/02/01 04:09:50;;;;;;;13.07;5.77;;;-1.50;99.90;;;;;;5061876;28;20193;-84
2022/02/01 04:12:17;;;;;;;16.03;6.23;;;-1.50;99.90;;;;;;5045343;28;20193;-79
2022/02/01 04:14:44;;;;;;;27.90;14.13;;;;;;;;;;5059659;28;20184;-81
2022/02/01 04:17:11;;;;;;;23.20;8.67;;;;;;;;;;5041168;28;20182;-81
2022/02/01 04:19:37;;;;;;;17.43;7.70;;;-1.50;99.90;;;;;;5038048;28;20236;-81
2022/02/01 04:22:05;;;;;;;20.63;7.63;;;-1.70;99.90;;;;;;5037574;28;20193;-81
2022/02/01 04:24:39;;;;;;;14.37;6.90;;;-1.50;99.90;;;;;;5055638;28;20179;-81
2022/02/01 04:27:07;;;;;;;17.30;8.10;;;-1.60;99.90;;;;;;5055438;28;20183;-81
2022/02/01 04:29:33;;;;;;;19.27;7.60;;;-1.90;99.90;;;;;;5055483;28;20285;-81
2022/02/01 04:31:59;;;;;;;32.13;10.37;;;-1.80;99.90;;;;;;5055192;28;20177;-81
2022/02/01 04:34:25;;;;;;;24.17;10.10;;;-1.50;99.90;;;;;;5055117;28;20226;-80
2022/02/01 04:36:51;;;;;;;35.57;11.93;;;-1.90;99.90;;;;;;5055383;28;20173;-82
2022/02/01 04:39:17;;;;;;;25.90;10.87;;;0.90;99.90;;;;;;5055309;28;20666;-81
2022/02/01 04:41:43;;;;;;;26.13;11.93;;;-1.70;99.90;;;;;;5054933;28;20181;-81
2022/02/01 04:44:09;;;;;;;25.30;11.20;;;-0.40;99.90;;;;;;5055263;28;20172;-81
2022/02/01 04:46:35;;;;;;;21.50;9.53;;;-1.60;99.90;;;;;;5021015;28;20564;-81
2022/02/01 04:49:05;;;;;;;22.80;9.30;;;-1.60;99.90;;;;;;5020554;28;20211;-81
2022/02/01 04:51:31;;;;;;;21.47;8.03;;;1.40;99.90;;;;;;5021571;28;20272;-81
2022/02/01 04:53:57;;;;;;;25.77;9.30;;;-1.50;99.90;;;;;;5036576;28;20590;-81
2022/02/01 04:56:24;;;;;;;26.37;12.47;;;-0.10;99.90;;;;;;5055325;28;20206;-81
2022/02/01 04:58:50;;;;;;;12.30;6.63;;;0.80;99.90;;;;;;5054623;28;20206;-82
2022/02/01 05:01:17;;;;;;;23.10;11.10;;;-1.70;99.90;;;;;;5054846;28;20189;-81
2022/02/01 05:03:42;;;;;;;19.93;9.07;;;-0.10;99.90;;;;;;5020486;28;20223;-81
2022/02/01 05:06:10;;;;;;;24.23;9.93;;;-1.70;99.90;;;;;;5053866;28;20219;-81
2022/02/01 05:08:36;;;;;;;24.37;9.83;;;-2.10;99.90;;;;;;5036201;28;20212;-80
2022/02/01 05:11:02;;;;;;;22.30;9.27;;;-0.20;99.90;;;;;;5036517;28;20634;-81
2022/02/01 05:18:36;;;;;;;26.77;11.13;;;-1.90;99.90;;;;;;5054070;28;20257;-81
2022/02/01 05:21:08;;;;;;;25.30;11.20;;;0.10;99.90;;;;;;5020741;28;20194;-81
2022/02/01 05:23:34;;;;;;;23.70;11.73;;;-0.60;99.90;;;;;;5054538;28;20164;-81
2022/02/01 05:26:00;;;;;;;22.23;10.43;;;-1.40;99.90;;;;;;5054017;28;20232;-81
2022/02/01 05:28:26;;;;;;;25.47;10.23;;;-2.20;99.90;;;;;;5019993;28;20630;-81
2022/02/01 05:30:55;;;;;;;25.77;10.27;;;-0.90;99.90;;;;;;5019938;28;20192;-81
2022/02/01 05:33:21;;;;;;;23.63;10.10;;;-0.20;99.90;;;;;;5036962;28;20187;-81
2022/02/01 05:35:47;;;;;;;31.97;12.20;;;;;;;;;;5036299;28;20564;-81
2022/02/01 05:38:12;;;;;;;25.83;11.53;;;-2.50;99.90;;;;;;5036207;28;20641;-81
2022/02/01 05:40:38;;;;;;;25.50;12.60;;;-2.50;99.90;;;;;;5036044;28;20176;-81
2022/02/01 05:43:13;;;;;;;30.20;13.37;;;-0.80;99.90;;;;;;5054075;28;20203;-81
2022/02/01 05:45:42;;;;;;;34.30;14.67;;;-2.60;99.90;;;;;;5043410;28;20165;-81
2022/02/01 05:48:10;;;;;;;36.53;15.40;;;-2.60;99.90;;;;;;5061794;28;20179;-81
2022/02/01 05:50:36;;;;;;;32.07;14.07;;;-2.60;99.90;;;;;;5047067;28;20177;-81
2022/02/01 05:53:02;;;;;;;31.10;13.93;;;-2.60;99.90;;;;;;5073380;28;20651;-81
2022/02/01 05:55:28;;;;;;;32.07;13.17;;;-2.90;99.90;;;;;;5066675;28;20188;-81
2022/02/01 05:57:54;;;;;;;32.97;13.87;;;-2.70;99.90;;;;;;5053081;28;20182;-81
2022/02/01 06:00:20;;;;;;;25.77;12.00;;;-3.00;99.90;;;;;;5052350;28;20258;-80
2022/02/01 06:02:46;;;;;;;32.63;14.40;;;-2.90;99.90;;;;;;5019968;28;20200;-81
2022/02/01 06:05:13;;;;;;;29.00;13.17;;;-3.00;99.90;;;;;;5034806;28;20192;-81
2022/02/01 06:07:39;;;;;;;27.90;12.67;;;-2.70;99.90;;;;;;5039838;28;20272;-82
2022/02/01 06:10:05;;;;;;;28.47;13.67;;;-3.00;99.90;;;;;;5044308;28;20234;-80
2022/02/01 06:12:46;;;;;;;32.17;14.90;;;-3.00;99.90;;;;;;5033589;28;20192;-81
2022/02/01 06:15:14;;;;;;;32.83;13.10;;;-3.10;99.90;;;;;;5051323;28;20269;-81
2022/02/01 06:17:40;;;;;;;34.00;13.90;;;-0.40;99.90;;;;;;5061468;28;20192;-80
2022/02/01 06:20:08;;;;;;;30.50;13.67;;;-3.00;99.90;;;;;;5054921;28;20223;-80
2022/02/01 06:22:34;;;;;;;34.33;12.67;;;;;;;;;;5044676;28;20912;-82
2022/02/01 06:25:00;;;;;;;34.07;15.50;;;;;;;;;;5022323;28;20189;-82
2022/02/01 06:27:27;;;;;;;34.40;15.00;;;-3.60;99.90;;;;;;5034890;28;20231;-81
2022/02/01 06:29:52;;;;;;;27.60;13.80;;;-3.60;99.90;;;;;;5034738;28;20228;-82
2022/02/01 06:32:19;;;;;;;43.23;15.20;;;-3.40;99.90;;;;;;5036351;28;20184;-80
2022/02/01 06:34:44;;;;;;;37.60;14.67;;;-3.50;99.90;;;;;;5052675;28;20206;-80
2022/02/01 06:37:11;;;;;;;41.73;15.20;;;-3.50;99.90;;;;;;5035054;28;20227;-80
2022/02/01 06:39:37;;;;;;;42.07;17.93;;;-0.70;99.90;;;;;;5052497;28;20206;-81
2022/02/01 06:42:04;;;;;;;42.87;16.00;;;-2.40;99.90;;;;;;5034738;28;20267;-80
2022/02/01 06:44:30;;;;;;;38.87;15.23;;;;;;;;;;5034935;28;20183;-79
2022/02/01 06:46:55;;;;;;;34.27;13.73;;;-3.40;99.90;;;;;;5034833;28;20189;-80
2022/02/01 06:49:21;;;;;;;30.83;11.93;;;-3.60;99.90;;;;;;5031481;28;20195;-81
2022/02/01 06:51:47;;;;;;;26.13;11.10;;;-3.50;99.90;;;;;;5051995;28;20187;-81
2022/02/01 06:54:13;;;;;;;36.30;14.17;;;-3.70;99.90;;;;;;5038119;28;20192;-81
2022/02/01 06:56:40;;;;;;;37.83;13.93;;;-3.30;99.90;;;;;;5057840;28;20184;-80
2022/02/01 06:59:06;;;;;;;36.93;14.87;;;-3.40;99.90;;;;;;5052629;28;20212;-81
2022/02/01 07:01:33;;;;;;;36.10;14.70;;;-3.30;99.90;;;;;;5052649;28;20187;-81
2022/02/01 07:03:59;;;;;;;39.63;15.67;;;-2.30;99.90;;;;;;5034858;28;20192;-80
2022/02/01 07:06:26;;;;;;;26.27;12.83;;;-3.30;99.90;;;;;;5017305;28;20198;-81
2022/02/01 07:08:53;;;;;;;37.30;15.07;;;-0.50;99.90;;;;;;5051502;28;20244;-80
2022/02/01 07:11:20;;;;;;;33.90;14.30;;;-3.00;99.90;;;;;;5050902;28;20177;-80
2022/02/01 07:13:47;;;;;;;36.87;14.13;;;-3.10;99.90;;;;;;5034097;28;20197;-80
2022/02/01 07:16:14;;;;;;;46.87;14.27;;;-3.30;99.90;;;;;;5034101;28;20656;-82
2022/02/01 07:18:40;;;;;;;38.73;15.40;;;-2.20;99.90;;;;;;5036223;28;20292;-82
2022/02/01 07:21:06;;;;;;;29.63;13.43;;;-3.10;99.90;;;;;;5036120;28;20571;-80
2022/02/01 07:23:32;;;;;;;32.27;14.27;;;-1.90;99.90;;;;;;5032895;28;20277;-80
2022/02/01 07:25:59;;;;;;;33.27;13.47;;;;;;;;;;5036108;28;20244;-80
2022/02/01 07:28:29;;;;;;;36.97;14.80;;;-2.80;99.90;;;;;;5032496;28;20224;-79
2022/02/01 07:30:56;;;;;;;34.97;13.43;;;-2.70;99.90;;;;;;5052909;28;20267;-80
2022/02/01 07:33:23;;;;;;;32.80;12.80;;;-2.90;99.90;;;;;;5053803;28;20197;-80
2022/02/01 07:35:50;;;;;;;26.00;12.63;;;-2.80;99.90;;;;;;5036741;28;20272;-79
2022/02/01 07:38:18;;;;;;;34.67;12.77;;;-2.90;99.90;;;;;;5054231;28;20190;-80
2022/02/01 07:40:57;;;;;;;29.77;13.60;;;-2.90;99.90;;;;;;5054802;28;20170;-80
2022/02/01 07:43:27;;;;;;;34.17;14.90;;;-2.80;99.90;;;;;;5031590;28;20204;-81
2022/02/01 07:45:53;;;;;;;33.53;13.60;;;-0.50;99.90;;;;;;5037687;28;20204;-82
2022/02/01 07:48:19;;;;;;;38.20;15.63;;;-2.00;99.90;;;;;;5020798;28;20566;-80
2022/02/01 07:50:44;;;;;;;38.47;14.13;;;-2.50;99.90;;;;;;5054268;28;20673;-80
2022/02/01 07:53:11;;;;;;;27.13;12.40;;;-2.50;99.90;;;;;;5038253;28;20229;-81
2022/02/01 07:55:37;;;;;;;37.60;14.30;;;-2.60;99.90;;;;;;5053550;28;20636;-80
2022/02/01 07:58:03;;;;;;;34.50;14.47;;;-1.00;99.90;;;;;;5036293;28;20194;-81
2022/02/01 08:00:30;;;;;;;28.93;13.77;;;-0.50;99.90;;;;;;5036013;28;20274;-81
2022/02/01 08:02:56;;;;;;;30.37;14.33;;;;;;;;;;5054125;28;20239;-79
2022/02/01 08:05:27;;;;;;;30.63;14.07;;;-2.50;99.90;;;;;;5035785;28;20227;-81
2022/02/01 08:07:53;;;;;;;43.93;20.03;;;-2.50;99.90;;;;;;5054308;28;20651;-81
2022/02/01 08:10:19;;;;;;;31.13;14.10;;;-2.70;99.90;;;;;;5054708;28;20182;-81
2022/02/01 08:18:27;;;;;;;29.87;15.23;;;-2.40;99.90;;;;;;5040427;28;20189;-80
2022/02/01 08:21:03;;;;;;;32.73;13.80;;;-2.60;99.90;;;;;;5040687;28;20170;-81
2022/02/01 08:23:30;;;;;;;42.23;14.43;;;-2.50;99.90;;;;;;5055148;28;20188;-81
2022/02/01 08:25:58;;;;;;;26.50;11.00;;;-2.50;99.90;;;;;;5054997;28;20181;-81
2022/02/01 08:28:24;;;;;;;27.93;12.30;;;-2.40;99.90;;;;;;5036944;28;20240;-80
2022/02/01 08:30:50;;;;;;;30.30;13.40;;;-2.50;99.90;;;;;;5055211;28;20219;-81
2022/02/01 08:33:16;;;;;;;37.33;14.07;;;;;;;;;;5020005;28;20221;-81
2022/02/01 08:35:42;;;;;;;34.80;15.53;;;-2.60;99.90;;;;;;5037153;28;20254;-81
2022/02/01 08:38:08;;;;;;;29.47;13.20;;;-2.70;99.90;;;;;;5037102;28;20296;-80
2022/02/01 08:40:33;;;;;;;34.13;13.77;;;-2.30;99.90;;;;;;5036573;28;20190;-81
2022/02/01 08:42:59;;;;;;;35.93;14.67;;;-2.50;99.90;;;;;;5040031;28;20626;-80
2022/02/01 08:45:25;;;;;;;28.73;14.10;;;-2.70;99.90;;;;;;5074445;28;20639;-81
2022/02/01 08:47:53;;;;;;;30.13;15.73;;;-2.50;99.90;;;;;;5037369;28;20334;-81
2022/02/01 08:50:24;;;;;;;41.70;15.07;;;-1.60;99.90;;;;;;5044470;28;20217;-81
2022/02/01 08:52:51;;;;;;;41.27;17.20;;;-2.50;99.90;;;;;;5042621;28;20272;-81
2022/02/01 08:55:35;;;;;;;37.93;13.50;;;;;;;;;;5067754;28;20202;-81
2022/02/01 08:58:02;;;;;;;36.63;14.80;;;-2.30;99.90;;;;;;5030505;28;20208;-82
2022/02/01 09:00:29;;;;;;;33.70;14.33;;;-2.10;99.90;;;;;;5028150;28;20244;-83
2022/02/01 09:02:56;;;;;;;38.43;15.00;;;-2.40;99.90;;;;;;5066347;28;20554;-82
2022/02/01 09:05:23;;;;;;;31.83;14.50;;;;;;;;;;5024686;28;20174;-82
2022/02/01 09:07:49;;;;;;;32.00;14.20;;;;;;;;;;5043849;28;20208;-82
2022/02/01 09:10:15;;;;;;;40.43;14.03;;;;;;;;;;5062593;28;20241;-83
2022/02/01 09:12:41;;;;;;;30.23;14.90;;;;;;;;;;5066397;28;20181;-83
2022/02/01 09:15:07;;;;;;;27.63;13.27;;;-1.80;99.90;;;;;;5043039;28;20638;-84
2022/02/01 09:17:33;;;;;;;28.33;12.97;;;;;;;;;;5049234;28;20293;-84
2022/02/01 09:20:00;;;;;;;30.87;14.20;;;;;;;;;;5062835;28;20293;-82
2022/02/01 09:25:53;;;;;;;32.90;17.30;;;-1.50;99.90;;;;;;5509877;22;20237;-79
2022/02/01 09:28:19;;;;;;;27.73;12.53;;;-0.90;99.90;;;;;;5306101;22;20233;-79
2022/02/01 09:30:46;;;;;;;29.23;12.87;;;-1.30;99.90;;;;;;5032866;28;20589;-80
2022/02/01 09:33:12;;;;;;;28.40;14.07;;;0.50;99.90;;;;;;5032508;28;20312;-80
2022/02/01 09:35:38;;;;;;;31.20;13.80;;;-1.30;99.90;;;;;;5018823;28;20185;-80
2022/02/01 09:38:03;;;;;;;26.50;10.83;;;-1.80;99.90;;;;;;5051355;28;20201;-79
2022/02/01 09:40:29;;;;;;;39.13;13.27;;;-1.30;99.90;;;;;;5054735;28;20231;-79
2022/02/01 09:42:55;;;;;;;23.17;10.20;;;-0.90;99.90;;;;;;5055020;28;20194;-79
2022/02/01 09:45:20;;;;;;;23.83;11.80;;;-1.40;99.90;;;;;;5053878;28;20262;-79
2022/02/01 09:47:49;;;;;;;23.67;8.87;;;0.50;99.90;;;;;;5053989;28;20197;-80
2022/02/01 09:50:16;;;;;;;30.30;10.97;;;0.90;99.90;;;;;;5052414;28;20187;-79
2022/02/01 09:52:41;;;;;;;24.90;11.23;;;-0.70;99.90;;;;;;5052966;28;20305;-79
2022/02/01 09:55:09;;;;;;;23.27;11.83;;;-0.10;99.90;;;;;;5053310;28;20263;-79
2022/02/01 09:57:43;;;;;;;30.07;13.30;;;-1.20;99.90;;;;;;5036091;28;20544;-79
2022/02/01 10:00:14;;;;;;;25.70;13.20;;;-1.20;99.90;;;;;;5068775;28;20218;-78
2022/02/01 10:02:42;;;;;;;18.83;7.90;;;-1.00;99.90;;;;;;5053690;28;20508;-79
2022/02/01 10:05:10;;;;;;;23.10;10.83;;;-1.10;99.90;;;;;;5053247;28;20176;-78
2022/02/01 10:07:56;;;;;;;20.83;9.37;;;0.30;99.90;;;;;;5053541;28;20176;-78
2022/02/01 10:10:24;;;;;;;26.40;10.33;;;-1.10;99.90;;;;;;5053490;28;20183;-78
2022/02/01 10:13:02;;;;;;;22.13;11.20;;;-1.00;99.90;;;;;;5053161;28;20181;-78
2022/02/01 10:15:33;;;;;;;21.87;9.43;;;-0.90;99.90;;;;;;5053247;28;20191;-78
2022/02/01 10:18:01;;;;;;;16.07;7.13;;;-0.90;99.90;;;;;;5053141;28;20689;-79
2022/02/01 10:20:36;;;;;;;25.37;10.10;;;0.20;99.90;;;;;;5053026;28;20222;-79
2022/02/01 10:23:23;;;;;;;25.07;10.40;;;1.30;99.90;;;;;;5052933;28;20189;-78
2022/02/01 10:26:06;;;;;;;30.63;9.57;;;-0.50;99.90;;;;;;5052999;28;20261;-78
2022/02/01 10:29:07;;;;;;;28.33;10.57;;;-0.70;99.90;;;;;;5053164;28;20233;-79
2022/02/01 10:31:42;;;;;;;22.50;10.00;;;-0.70;99.90;;;;;;5053353;28;20190;-78
2022/02/01 10:37:03;;;;;;;19.80;9.57;;;1.10;99.90;;;;;;5052829;28;20202;-78
2022/02/01 10:39:33;;;;;;;19.83;7.57;;;-0.20;99.90;;;;;;5051677;28;20675;-78
2022/02/01 10:42:09;;;;;;;16.73;7.57;;;0.00;99.90;;;;;;5052564;28;20175;-78
2022/02/01 10:44:50;;;;;;;16.33;7.93;;;0.00;99.90;;;;;;5052843;28;20643;-78
2022/02/01 10:47:18;;;;;;;19.87;8.10;;;0.20;99.90;;;;;;5052390;28;20179;-78
2022/02/01 10:49:44;;;;;;;11.90;6.03;;;0.40;99.90;;;;;;5052805;28;20188;-79
2022/02/01 10:52:12;;;;;;;10.90;4.90;;;1.70;99.90;;;;;;5051130;28;20179;-79
2022/02/01 10:54:40;;;;;;;11.83;6.60;;;0.50;99.90;;;;;;5052689;28;20176;-79
2022/02/01 10:57:08;;;;;;;11.03;4.50;;;0.50;99.90;;;;;;5052569;28;20172;-79
2022/02/01 10:59:34;;;;;;;11.53;5.37;;;0.50;99.90;;;;;;5052514;28;20302;-79
2022/02/01 11:02:03;;;;;;;7.67;3.90;;;0.40;99.90;;;;;;5052609;28;20260;-80
2022/02/01 11:04:31;;;;;;;10.50;4.70;;;0.40;99.90;;;;;;5054400;28;20240;-78
2022/02/01 11:06:57;;;;;;;15.17;4.50;;;0.30;99.90;;;;;;5056960;28;20524;-78
2022/02/01 11:09:28;;;;;;;10.93;5.03;;;0.20;99.90;;;;;;5059341;28;20179;-79
2022/02/01 11:11:57;;;;;;;7.43;4.07;;;0.10;99.90;;;;;;5058772;28;20179;-78
2022/02/01 11:14:25;;;;;;;8.93;3.57;;;1.70;99.90;;;;;;5060521;28;20182;-79
2022/02/01 11:17:07;;;;;;;11.80;4.57;;;2.10;99.90;;;;;;5059917;28;20651;-78
2022/02/01 11:19:54;;;;;;;8.40;3.90;;;0.20;99.90;;;;;;5058061;28;20258;-79
2022/02/01 11:22:36;;;;;;;7.07;4.50;;;0.10;99.90;;;;;;5057707;28;20696;-79
2022/02/01 11:25:19;;;;;;;11.63;3.90;;;0.20;99.90;;;;;;5057168;28;20259;-85
2022/02/01 11:30:38;;;;;;;11.53;4.77;;;0.00;99.90;;;;;;5056740;28;20183;-78
2022/02/01 11:33:05;;;;;;;13.50;5.97;;;-0.10;99.90;;;;;;5055796;28;20212;-80
2022/02/01 11:35:31;;;;;;;10.00;4.93;;;-0.10;99.90;;;;;;5049318;28;20175;-79
2022/02/01 11:37:59;;;;;;;12.03;5.47;;;0.90;99.90;;;;;;5035124;28;20256;-78
2022/02/01 11:40:26;;;;;;;13.23;6.43;;;1.40;99.90;;;;;;5040926;28;20819;-78
2022/02/01 11:43:00;;;;;;;15.57;5.57;;;0.90;99.90;;;;;;5035728;28;20662;-79
2022/02/01 11:45:39;;;;;;;12.00;5.63;;;0.80;99.90;;;;;;5032878;28;20184;-79
2022/02/01 11:48:25;;;;;;;15.87;7.23;;;-0.10;99.90;;;;;;5052945;28;20187;-82
2022/02/01 11:50:53;;;;;;;17.23;6.83;;;0.80;99.90;;;;;;5054706;28;20290;-79
2022/02/01 11:53:32;;;;;;;11.83;5.17;;;1.50;99.90;;;;;;5034155;28;20269;-79
2022/02/01 11:55:59;;;;;;;20.57;6.90;;;-0.30;99.90;;;;;;5047042;28;20178;-78
2022/02/01 11:58:36;;;;;;;23.97;7.53;;;-0.30;99.90;;;;;;5033513;28;20185;-78
2022/02/01 12:01:05;;;;;;;14.23;6.70;;;-0.30;99.90;;;;;;5049964;28;20585;-78
2022/02/01 12:03:40;;;;;;;25.07;8.20;;;1.60;99.90;;;;;;5041794;28;20191;-79
2022/02/01 12:06:09;;;;;;;17.23;8.60;;;-0.50;99.90;;;;;;5024791;28;20183;-79
2022/02/01 12:08:42;;;;;;;21.97;8.10;;;-0.40;99.90;;;;;;5034491;28;20184;-79
2022/02/01 12:11:09;;;;;;;12.53;5.93;;;-0.30;99.90;;;;;;5041199;28;20269;-84
2022/02/01 12:13:35;;;;;;;21.87;8.63;;;-0.30;99.90;;;;;;5033190;28;20267;-80
2022/02/01 12:16:07;;;;;;;24.20;9.93;;;-0.30;99.90;;;;;;5039596;28;20180;-81
2022/02/01 12:18:46;;;;;;;13.70;7.37;;;-0.50;99.90;;;;;;5043400;28;20204;-79
2022/02/01 12:21:37;;;;;;;16.40;7.80;;;-0.40;99.90;;;;;;5043366;28;20196;-80
2022/02/01 12:24:04;;;;;;;22.00;7.90;;;-0.40;99.90;;;;;;5039470;28;20192;-78
2022/02/01 12:26:32;;;;;;;9.07;5.67;;;-0.40;99.90;;;;;;5034226;28;20175;-78
2022/02/01 12:29:00;;;;;;;12.67;6.30;;;-0.50;99.90;;;;;;5043234;28;20245;-79
2022/02/01 12:31:30;;;;;;;15.70;7.37;;;-0.40;99.90;;;;;;5049761;28;20198;-78
2022/02/01 12:33:58;;;;;;;14.40;6.57;;;-0.20;99.90;;;;;;5044637;28;20545;-78
2022/02/01 12:36:27;;;;;;;15.90;6.53;;;0.30;99.90;;;;;;5040446;28;20665;-79
2022/02/01 12:39:05;;;;;;;15.73;6.87;;;0.80;99.90;;;;;;5033521;28;20295;-80
2022/02/01 12:41:42;;;;;;;11.97;5.80;;;-0.20;99.90;;;;;;5027024;28;20381;-79
2022/02/01 12:46:50;;;;;;;15.63;6.60;;;0.00;99.90;;;;;;5042571;28;20213;-79
2022/02/01 12:49:17;;;;;;;17.13;7.03;;;0.10;99.90;;;;;;5045035;28;20249;-81
2022/02/01 12:51:51;;;;;;;12.53;5.07;;;0.70;99.90;;;;;;5049346;28;20633;-79
2022/02/01 12:54:26;;;;;;;20.17;7.20;;;1.10;99.90;;;;;;5051166;28;20187;-79
2022/02/01 12:57:13;;;;;;;19.47;6.40;;;1.60;99.90;;;;;;5054264;28;20652;-79
2022/02/01 12:59:44;;;;;;;16.57;6.13;;;0.30;99.90;;;;;;5051722;28;20216;-80
2022/02/01 13:02:31;;;;;;;13.43;5.13;;;0.20;99.90;;;;;;5053225;28;20660;-78
2022/02/01 13:04:59;;;;;;;16.07;6.07;;;0.10;99.90;;;;;;5052972;28;20695;-79
2022/02/01 13:16:22;;;;;;;11.27;5.33;;;1.20;99.90;;;;;;5054471;28;20210;-78
2022/02/01 13:21:16;;;;;;;17.70;6.70;;;-0.30;99.90;;;;;;5054120;28;20645;-77
2022/02/01 13:23:47;;;;;;;13.53;6.10;;;-0.30;99.90;;;;;;5054497;28;20176;-77
2022/02/01 13:26:17;;;;;;;21.07;7.27;;;-0.40;99.90;;;;;;5052188;28;20746;-80
2022/02/01 13:28:54;;;;;;;17.80;7.73;;;-0.40;99.90;;;;;;5053049;28;20719;-77
2022/02/01 13:31:25;;;;;;;17.17;6.90;;;;;;;;;;5052712;28;20170;-78
2022/02/01 13:33:57;;;;;;;22.43;7.17;;;-0.40;99.90;;;;;;5054032;28;20180;-79
2022/02/01 13:36:23;;;;;;;16.30;7.33;;;1.00;99.90;;;;;;5052891;28;20222;-79
2022/02/01 13:39:00;;;;;;;16.20;7.33;;;0.30;99.90;;;;;;5054011;28;20284;-79
2022/02/01 13:41:29;;;;;;;23.20;7.27;;;-0.30;99.90;;;;;;5054143;28;20185;-79
2022/02/01 13:43:59;;;;;;;19.23;8.67;;;1.40;99.90;;;;;;5046331;28;20180;-80
2022/02/01 13:46:34;;;;;;;19.90;7.73;;;1.00;99.90;;;;;;5030972;28;20205;-79
2022/02/01 13:49:10;;;;;;;19.13;7.93;;;1.10;99.90;;;;;;5041694;28;20168;-76
2022/02/01 13:51:50;;;;;;;12.93;6.50;;;1.10;99.90;;;;;;5044441;28;20176;-77
2022/02/01 13:54:16;;;;;;;20.00;8.33;;;1.40;99.90;;;;;;5039864;28;20229;-79
2022/02/01 13:56:46;;;;;;;22.93;8.03;;;1.10;99.90;;;;;;5042340;28;20180;-77
2022/02/01 13:59:16;;;;;;;15.70;6.90;;;1.20;99.90;;;;;;5047419;28;20203;-77
2022/02/01 14:01:44;;;;;;;15.03;6.57;;;0.30;99.90;;;;;;5039685;28;20358;-77
2022/02/01 14:04:27;;;;;;;16.67;8.13;;;0.30;99.90;;;;;;5043060;28;20759;-77
2022/02/01 14:07:28;;;;;;;15.70;7.40;;;0.00;99.90;;;;;;5041906;28;20187;-80
2022/02/01 14:36:12;;;;;;;20.47;8.00;;;-0.50;99.90;;;;;;5000071;28;20628;-78
2022/02/01 14:46:34;;;;;;;20.33;8.93;;;-0.40;99.90;;;;;;5050901;28;20278;-79
2022/02/01 14:49:00;;;;;;;18.17;8.10;;;1.20;99.90;;;;;;5051911;28;20220;-78
2022/02/01 14:51:26;;;;;;;26.37;9.87;;;-0.40;99.90;;;;;;5039466;28;20184;-87
2022/02/01 14:53:52;;;;;;;19.07;9.00;;;-0.50;99.90;;;;;;5050728;28;20193;-81
2022/02/01 14:56:23;;;;;;;54.10;17.00;;;0.90;99.90;;;;;;5046084;28;20601;-80
2022/02/01 15:07:06;;;;;;;27.90;11.40;;;;;;;;;;5050698;28;20182;-79
2022/02/01 15:14:42;;;;;;;34.47;15.37;;;1.20;99.90;;;;;;5050105;28;20276;-80
2022/02/01 15:17:14;;;;;;;40.30;17.70;;;0.70;99.90;;;;;;5050616;28;20184;-80
2022/02/01 15:19:39;;;;;;;32.93;13.27;;;-0.30;99.90;;;;;;5051491;28;20279;-79
2022/02/01 15:22:05;;;;;;;29.50;11.87;;;1.00;99.90;;;;;;5033880;28;20191;-79
2022/02/01 15:24:31;;;;;;;32.03;14.57;;;-0.40;99.90;;;;;;5051302;28;20629;-80
2022/02/01 15:26:57;;;;;;;23.63;11.07;;;-0.40;99.90;;;;;;5051213;28;20176;-79